sensor_id;sensor_type;location;lat;lon;timestamp;P1;durP1;ratioP1;P2;durP2;ratioP2
7517;SDS011;3800;48.922;9.444;2023-10-09T00:00:27;10.03;;;6.57;;
7517;SDS011;3800;48.922;9.444;2023-10-09T00:03:01;7.73;;;6.10;;
7517;SDS011;3800;48.922;9.444;2023-10-09T00:05:30;8.87;;;6.47;;
7517;SDS011;3800;48.922;9.444;2023-10-09T00:08:05;8.20;;;6.10;;
7517;SDS011;3800;48.922;9.444;2023-10-09T00:10:33;7.87;;;5.77;;
7517;SDS011;3800;48.922;9.444;2023-10-09T00:13:01;9.97;;;6.43;;
7517;SDS011;3800;48.922;9.444;2023-10-09T00:15:32;7.90;;;6.23;;
7517;SDS011;3800;48.922;9.444;2023-10-09T00:17:59;6.70;;;6.00;;
7517;SDS011;3800;48.922;9.444;2023-10-09T00:20:27;7.27;;;5.90;;
7517;SDS011;3800;48.922;9.444;2023-10-09T00:22:55;9.67;;;6.10;;
7517;SDS011;3800;48.922;9.444;2023-10-09T00:25:23;8.03;;;6.10;;
7517;SDS011;3800;48.922;9.444;2023-10-09T00:27:52;8.77;;;5.90;;
7517;SDS011;3800;48.922;9.444;2023-10-09T00:30:20;10.57;;;6.73;;
7517;SDS011;3800;48.922;9.444;2023-10-09T00:32:48;7.40;;;6.40;;
7517;SDS011;3800;48.922;9.444;2023-10-09T00:35:19;7.63;;;6.27;;
7517;SDS011;3800;48.922;9.444;2023-10-09T00:37:52;7.63;;;6.80;;
7517;SDS011;3800;48.922;9.444;2023-10-09T00:40:21;8.43;;;6.90;;
7517;SDS011;3800;48.922;9.444;2023-10-09T00:42:49;9.83;;;6.87;;
7517;SDS011;3800;48.922;9.444;2023-10-09T00:45:17;6.90;;;6.13;;
7517;SDS011;3800;48.922;9.444;2023-10-09T00:47:46;9.17;;;7.07;;
7517;SDS011;3800;48.922;9.444;2023-10-09T00:50:14;10.90;;;6.97;;
7517;SDS011;3800;48.922;9.444;2023-10-09T00:52:52;9.17;;;6.50;;
7517;SDS011;3800;48.922;9.444;2023-10-09T00:55:20;7.27;;;5.43;;
7517;SDS011;3800;48.922;9.444;2023-10-09T00:57:50;6.80;;;5.70;;
7517;SDS011;3800;48.922;9.444;2023-10-09T01:00:19;10.17;;;5.90;;
7517;SDS011;3800;48.922;9.444;2023-10-09T01:02:52;7.87;;;6.17;;
7517;SDS011;3800;48.922;9.444;2023-10-09T01:05:21;9.93;;;6.40;;
7517;SDS011;3800;48.922;9.444;2023-10-09T01:07:49;9.60;;;5.20;;
7517;SDS011;3800;48.922;9.444;2023-10-09T01:10:17;10.07;;;6.40;;
7517;SDS011;3800;48.922;9.444;2023-10-09T01:12:45;7.47;;;5.60;;
7517;SDS011;3800;48.922;9.444;2023-10-09T01:15:14;9.00;;;6.40;;
7517;SDS011;3800;48.922;9.444;2023-10-09T01:17:45;8.53;;;6.20;;
7517;SDS011;3800;48.922;9.444;2023-10-09T01:20:13;9.87;;;6.47;;
7517;SDS011;3800;48.922;9.444;2023-10-09T01:22:44;8.23;;;7.00;;
7517;SDS011;3800;48.922;9.444;2023-10-09T01:25:12;10.07;;;6.87;;
7517;SDS011;3800;48.922;9.444;2023-10-09T01:27:40;8.30;;;6.47;;
7517;SDS011;3800;48.922;9.444;2023-10-09T01:30:09;9.80;;;6.60;;
7517;SDS011;3800;48.922;9.444;2023-10-09T01:32:38;10.03;;;6.90;;
7517;SDS011;3800;48.922;9.444;2023-10-09T01:35:06;7.63;;;5.90;;
7517;SDS011;3800;48.922;9.444;2023-10-09T01:37:37;8.57;;;7.20;;
7517;SDS011;3800;48.922;9.444;2023-10-09T01:40:05;9.10;;;6.70;;
7517;SDS011;3800;48.922;9.444;2023-10-09T01:42:50;10.87;;;7.17;;
7517;SDS011;3800;48.922;9.444;2023-10-09T01:45:18;10.33;;;6.97;;
7517;SDS011;3800;48.922;9.444;2023-10-09T01:47:54;9.90;;;6.83;;
7517;SDS011;3800;48.922;9.444;2023-10-09T01:50:23;11.30;;;7.30;;
7517;SDS011;3800;48.922;9.444;2023-10-09T01:52:52;9.27;;;6.23;;
7517;SDS011;3800;48.922;9.444;2023-10-09T01:55:20;8.97;;;5.87;;
7517;SDS011;3800;48.922;9.444;2023-10-09T01:58:09;8.10;;;6.27;;
7517;SDS011;3800;48.922;9.444;2023-10-09T02:00:45;8.10;;;6.03;;
7517;SDS011;3800;48.922;9.444;2023-10-09T02:03:18;10.63;;;6.47;;
7517;SDS011;3800;48.922;9.444;2023-10-09T02:05:46;7.93;;;6.20;;
7517;SDS011;3800;48.922;9.444;2023-10-09T02:08:15;10.77;;;6.03;;
7517;SDS011;3800;48.922;9.444;2023-10-09T02:10:44;9.30;;;6.13;;
7517;SDS011;3800;48.922;9.444;2023-10-09T02:13:12;13.67;;;7.27;;
7517;SDS011;3800;48.922;9.444;2023-10-09T02:15:44;9.13;;;7.00;;
7517;SDS011;3800;48.922;9.444;2023-10-09T02:18:15;8.17;;;7.13;;
7517;SDS011;3800;48.922;9.444;2023-10-09T02:20:45;9.43;;;6.50;;
7517;SDS011;3800;48.922;9.444;2023-10-09T02:23:13;9.13;;;7.50;;
7517;SDS011;3800;48.922;9.444;2023-10-09T02:25:43;9.17;;;7.40;;
7517;SDS011;3800;48.922;9.444;2023-10-09T02:28:12;13.23;;;8.13;;
7517;SDS011;3800;48.922;9.444;2023-10-09T02:30:46;10.13;;;7.17;;
7517;SDS011;3800;48.922;9.444;2023-10-09T02:33:15;12.10;;;7.00;;
7517;SDS011;3800;48.922;9.444;2023-10-09T02:35:48;8.47;;;6.70;;
7517;SDS011;3800;48.922;9.444;2023-10-09T02:38:17;14.10;;;6.87;;
7517;SDS011;3800;48.922;9.444;2023-10-09T02:40:45;9.73;;;6.67;;
7517;SDS011;3800;48.922;9.444;2023-10-09T02:43:29;9.17;;;6.93;;
7517;SDS011;3800;48.922;9.444;2023-10-09T02:46:14;8.90;;;6.23;;
7517;SDS011;3800;48.922;9.444;2023-10-09T02:48:48;10.13;;;6.30;;
7517;SDS011;3800;48.922;9.444;2023-10-09T02:51:19;10.07;;;5.93;;
7517;SDS011;3800;48.922;9.444;2023-10-09T02:53:56;10.87;;;5.67;;
7517;SDS011;3800;48.922;9.444;2023-10-09T02:56:24;7.07;;;5.93;;
7517;SDS011;3800;48.922;9.444;2023-10-09T02:59:07;8.47;;;6.60;;
7517;SDS011;3800;48.922;9.444;2023-10-09T03:01:37;11.23;;;6.90;;
7517;SDS011;3800;48.922;9.444;2023-10-09T03:04:05;11.43;;;6.43;;
7517;SDS011;3800;48.922;9.444;2023-10-09T03:06:34;12.73;;;6.70;;
7517;SDS011;3800;48.922;9.444;2023-10-09T03:09:03;11.77;;;7.63;;
7517;SDS011;3800;48.922;9.444;2023-10-09T03:11:32;12.83;;;6.77;;
7517;SDS011;3800;48.922;9.444;2023-10-09T03:14:00;9.27;;;6.13;;
7517;SDS011;3800;48.922;9.444;2023-10-09T03:16:29;11.37;;;6.87;;
7517;SDS011;3800;48.922;9.444;2023-10-09T03:18:57;9.40;;;6.27;;
7517;SDS011;3800;48.922;9.444;2023-10-09T03:21:25;9.40;;;6.63;;
7517;SDS011;3800;48.922;9.444;2023-10-09T03:23:54;10.20;;;6.83;;
7517;SDS011;3800;48.922;9.444;2023-10-09T03:26:25;10.37;;;6.50;;
7517;SDS011;3800;48.922;9.444;2023-10-09T03:28:53;7.37;;;6.13;;
7517;SDS011;3800;48.922;9.444;2023-10-09T03:31:22;11.27;;;6.20;;
7517;SDS011;3800;48.922;9.444;2023-10-09T03:33:51;10.90;;;6.37;;
7517;SDS011;3800;48.922;9.444;2023-10-09T03:36:20;9.33;;;6.70;;
7517;SDS011;3800;48.922;9.444;2023-10-09T03:38:48;8.93;;;6.27;;
7517;SDS011;3800;48.922;9.444;2023-10-09T03:41:18;9.93;;;7.10;;
7517;SDS011;3800;48.922;9.444;2023-10-09T03:43:47;8.57;;;6.43;;
7517;SDS011;3800;48.922;9.444;2023-10-09T03:46:15;7.53;;;6.03;;
7517;SDS011;3800;48.922;9.444;2023-10-09T03:48:48;9.50;;;6.73;;
7517;SDS011;3800;48.922;9.444;2023-10-09T03:51:17;9.10;;;6.37;;
7517;SDS011;3800;48.922;9.444;2023-10-09T03:53:49;9.70;;;6.33;;
7517;SDS011;3800;48.922;9.444;2023-10-09T03:56:18;9.97;;;6.50;;
7517;SDS011;3800;48.922;9.444;2023-10-09T03:58:48;9.60;;;6.70;;
7517;SDS011;3800;48.922;9.444;2023-10-09T04:01:16;8.40;;;6.07;;
7517;SDS011;3800;48.922;9.444;2023-10-09T04:03:59;8.30;;;6.53;;
7517;SDS011;3800;48.922;9.444;2023-10-09T04:06:27;12.03;;;7.00;;
7517;SDS011;3800;48.922;9.444;2023-10-09T04:08:59;8.63;;;6.43;;
7517;SDS011;3800;48.922;9.444;2023-10-09T04:11:28;10.57;;;6.50;;
7517;SDS011;3800;48.922;9.444;2023-10-09T04:13:56;8.03;;;6.30;;
7517;SDS011;3800;48.922;9.444;2023-10-09T04:16:25;10.17;;;6.27;;
7517;SDS011;3800;48.922;9.444;2023-10-09T04:18:55;7.97;;;5.97;;
7517;SDS011;3800;48.922;9.444;2023-10-09T04:21:24;9.10;;;5.70;;
7517;SDS011;3800;48.922;9.444;2023-10-09T04:24:01;9.17;;;6.60;;
7517;SDS011;3800;48.922;9.444;2023-10-09T04:26:41;8.37;;;5.63;;
7517;SDS011;3800;48.922;9.444;2023-10-09T04:29:09;9.80;;;6.27;;
7517;SDS011;3800;48.922;9.444;2023-10-09T04:31:38;7.50;;;6.17;;
7517;SDS011;3800;48.922;9.444;2023-10-09T04:34:06;11.10;;;5.87;;
7517;SDS011;3800;48.922;9.444;2023-10-09T04:36:40;9.27;;;6.40;;
7517;SDS011;3800;48.922;9.444;2023-10-09T04:39:13;8.73;;;6.10;;
7517;SDS011;3800;48.922;9.444;2023-10-09T04:41:56;8.20;;;6.03;;
7517;SDS011;3800;48.922;9.444;2023-10-09T04:44:41;8.60;;;5.93;;
7517;SDS011;3800;48.922;9.444;2023-10-09T04:47:15;9.63;;;6.30;;
7517;SDS011;3800;48.922;9.444;2023-10-09T04:49:44;10.10;;;6.13;;
7517;SDS011;3800;48.922;9.444;2023-10-09T04:52:30;10.00;;;5.80;;
7517;SDS011;3800;48.922;9.444;2023-10-09T04:55:14;9.20;;;5.87;;
7517;SDS011;3800;48.922;9.444;2023-10-09T04:57:43;8.33;;;6.30;;
7517;SDS011;3800;48.922;9.444;2023-10-09T05:00:13;10.33;;;6.50;;
7517;SDS011;3800;48.922;9.444;2023-10-09T05:02:46;8.53;;;6.23;;
7517;SDS011;3800;48.922;9.444;2023-10-09T05:05:24;9.83;;;5.43;;
7517;SDS011;3800;48.922;9.444;2023-10-09T05:08:12;10.27;;;6.10;;
7517;SDS011;3800;48.922;9.444;2023-10-09T05:10:45;9.57;;;6.10;;
7517;SDS011;3800;48.922;9.444;2023-10-09T05:13:36;10.20;;;6.13;;
7517;SDS011;3800;48.922;9.444;2023-10-09T05:16:13;9.13;;;5.67;;
7517;SDS011;3800;48.922;9.444;2023-10-09T05:18:59;9.77;;;5.80;;
7517;SDS011;3800;48.922;9.444;2023-10-09T05:21:30;10.40;;;6.53;;
7517;SDS011;3800;48.922;9.444;2023-10-09T05:24:03;7.93;;;5.50;;
7517;SDS011;3800;48.922;9.444;2023-10-09T05:26:36;8.40;;;5.87;;
7517;SDS011;3800;48.922;9.444;2023-10-09T05:29:10;7.53;;;6.03;;
7517;SDS011;3800;48.922;9.444;2023-10-09T05:31:54;8.77;;;5.60;;
7517;SDS011;3800;48.922;9.444;2023-10-09T05:34:23;11.53;;;6.07;;
7517;SDS011;3800;48.922;9.444;2023-10-09T05:36:51;11.07;;;6.07;;
7517;SDS011;3800;48.922;9.444;2023-10-09T05:39:20;9.77;;;5.87;;
7517;SDS011;3800;48.922;9.444;2023-10-09T05:41:49;8.90;;;6.47;;
7517;SDS011;3800;48.922;9.444;2023-10-09T05:44:19;10.23;;;6.43;;
7517;SDS011;3800;48.922;9.444;2023-10-09T05:46:54;11.73;;;6.47;;
7517;SDS011;3800;48.922;9.444;2023-10-09T05:49:27;8.37;;;6.00;;
7517;SDS011;3800;48.922;9.444;2023-10-09T05:51:55;10.30;;;6.37;;
7517;SDS011;3800;48.922;9.444;2023-10-09T05:54:24;9.87;;;6.13;;
7517;SDS011;3800;48.922;9.444;2023-10-09T05:57:11;8.43;;;6.07;;
7517;SDS011;3800;48.922;9.444;2023-10-09T05:59:59;9.77;;;6.57;;
7517;SDS011;3800;48.922;9.444;2023-10-09T06:02:33;11.40;;;7.00;;
7517;SDS011;3800;48.922;9.444;2023-10-09T06:05:07;9.13;;;6.27;;
7517;SDS011;3800;48.922;9.444;2023-10-09T06:07:38;9.90;;;6.30;;
7517;SDS011;3800;48.922;9.444;2023-10-09T06:10:09;8.13;;;5.90;;
7517;SDS011;3800;48.922;9.444;2023-10-09T06:12:38;7.87;;;6.30;;
7517;SDS011;3800;48.922;9.444;2023-10-09T06:15:16;12.90;;;6.40;;
7517;SDS011;3800;48.922;9.444;2023-10-09T06:17:46;8.97;;;5.83;;
7517;SDS011;3800;48.922;9.444;2023-10-09T06:20:17;8.13;;;5.97;;
7517;SDS011;3800;48.922;9.444;2023-10-09T06:23:02;10.33;;;6.00;;
7517;SDS011;3800;48.922;9.444;2023-10-09T06:25:35;9.23;;;6.43;;
7517;SDS011;3800;48.922;9.444;2023-10-09T06:28:03;8.53;;;6.40;;
7517;SDS011;3800;48.922;9.444;2023-10-09T06:30:34;11.13;;;6.27;;
7517;SDS011;3800;48.922;9.444;2023-10-09T06:33:02;8.73;;;6.17;;
7517;SDS011;3800;48.922;9.444;2023-10-09T06:35:35;13.33;;;6.83;;
7517;SDS011;3800;48.922;9.444;2023-10-09T06:38:03;9.50;;;6.27;;
7517;SDS011;3800;48.922;9.444;2023-10-09T06:40:49;9.60;;;6.33;;
7517;SDS011;3800;48.922;9.444;2023-10-09T06:43:34;7.83;;;6.13;;
7517;SDS011;3800;48.922;9.444;2023-10-09T06:46:05;9.97;;;7.07;;
7517;SDS011;3800;48.922;9.444;2023-10-09T06:48:50;10.03;;;7.20;;
7517;SDS011;3800;48.922;9.444;2023-10-09T06:51:23;11.10;;;6.63;;
7517;SDS011;3800;48.922;9.444;2023-10-09T06:54:06;8.63;;;6.10;;
7517;SDS011;3800;48.922;9.444;2023-10-09T06:56:34;8.10;;;6.77;;
7517;SDS011;3800;48.922;9.444;2023-10-09T06:59:17;13.37;;;7.03;;
7517;SDS011;3800;48.922;9.444;2023-10-09T07:01:49;10.23;;;7.70;;
7517;SDS011;3800;48.922;9.444;2023-10-09T07:04:35;13.67;;;7.20;;
7517;SDS011;3800;48.922;9.444;2023-10-09T07:07:17;11.77;;;6.83;;
7517;SDS011;3800;48.922;9.444;2023-10-09T07:09:46;11.80;;;7.10;;
7517;SDS011;3800;48.922;9.444;2023-10-09T07:12:20;8.90;;;6.83;;
7517;SDS011;3800;48.922;9.444;2023-10-09T07:14:49;12.40;;;7.33;;
7517;SDS011;3800;48.922;9.444;2023-10-09T07:17:32;10.20;;;6.47;;
7517;SDS011;3800;48.922;9.444;2023-10-09T07:20:14;12.53;;;6.83;;
7517;SDS011;3800;48.922;9.444;2023-10-09T07:22:44;8.10;;;6.70;;
7517;SDS011;3800;48.922;9.444;2023-10-09T07:25:17;14.27;;;6.97;;
7517;SDS011;3800;48.922;9.444;2023-10-09T07:27:50;10.07;;;6.70;;
7517;SDS011;3800;48.922;9.444;2023-10-09T07:30:20;8.83;;;6.13;;
7517;SDS011;3800;48.922;9.444;2023-10-09T07:32:53;10.57;;;6.83;;
7517;SDS011;3800;48.922;9.444;2023-10-09T07:35:23;15.20;;;7.57;;
7517;SDS011;3800;48.922;9.444;2023-10-09T07:37:58;11.90;;;7.47;;
7517;SDS011;3800;48.922;9.444;2023-10-09T07:40:27;10.63;;;6.93;;
7517;SDS011;3800;48.922;9.444;2023-10-09T07:42:55;10.07;;;6.53;;
7517;SDS011;3800;48.922;9.444;2023-10-09T07:45:23;16.10;;;7.13;;
7517;SDS011;3800;48.922;9.444;2023-10-09T07:48:07;11.80;;;6.63;;
7517;SDS011;3800;48.922;9.444;2023-10-09T07:50:36;13.83;;;7.07;;
7517;SDS011;3800;48.922;9.444;2023-10-09T07:53:07;10.07;;;7.20;;
7517;SDS011;3800;48.922;9.444;2023-10-09T07:55:42;10.20;;;6.83;;
7517;SDS011;3800;48.922;9.444;2023-10-09T07:58:10;11.20;;;7.50;;
7517;SDS011;3800;48.922;9.444;2023-10-09T08:00:39;12.07;;;7.97;;
7517;SDS011;3800;48.922;9.444;2023-10-09T08:03:13;9.30;;;6.60;;
7517;SDS011;3800;48.922;9.444;2023-10-09T08:05:43;12.80;;;7.13;;
7517;SDS011;3800;48.922;9.444;2023-10-09T08:08:12;13.10;;;7.57;;
7517;SDS011;3800;48.922;9.444;2023-10-09T08:11:01;14.27;;;7.50;;
7517;SDS011;3800;48.922;9.444;2023-10-09T08:13:34;15.23;;;6.97;;
7517;SDS011;3800;48.922;9.444;2023-10-09T08:16:08;12.63;;;7.77;;
7517;SDS011;3800;48.922;9.444;2023-10-09T08:18:37;10.70;;;7.07;;
7517;SDS011;3800;48.922;9.444;2023-10-09T08:21:05;15.17;;;7.20;;
7517;SDS011;3800;48.922;9.444;2023-10-09T08:23:48;13.40;;;6.73;;
7517;SDS011;3800;48.922;9.444;2023-10-09T08:26:17;13.20;;;6.57;;
7517;SDS011;3800;48.922;9.444;2023-10-09T08:28:51;13.13;;;6.60;;
7517;SDS011;3800;48.922;9.444;2023-10-09T08:31:19;14.53;;;7.00;;
7517;SDS011;3800;48.922;9.444;2023-10-09T08:33:53;14.87;;;7.27;;
7517;SDS011;3800;48.922;9.444;2023-10-09T08:36:24;17.90;;;6.57;;
7517;SDS011;3800;48.922;9.444;2023-10-09T08:38:55;12.10;;;6.70;;
7517;SDS011;3800;48.922;9.444;2023-10-09T08:41:24;13.20;;;7.10;;
7517;SDS011;3800;48.922;9.444;2023-10-09T08:43:53;12.80;;;7.10;;
7517;SDS011;3800;48.922;9.444;2023-10-09T08:46:22;13.73;;;6.57;;
7517;SDS011;3800;48.922;9.444;2023-10-09T08:48:51;15.47;;;6.70;;
7517;SDS011;3800;48.922;9.444;2023-10-09T08:51:24;12.73;;;6.53;;
7517;SDS011;3800;48.922;9.444;2023-10-09T08:53:53;13.53;;;7.33;;
7517;SDS011;3800;48.922;9.444;2023-10-09T08:56:22;12.30;;;7.20;;
7517;SDS011;3800;48.922;9.444;2023-10-09T08:58:51;13.47;;;6.57;;
7517;SDS011;3800;48.922;9.444;2023-10-09T09:01:20;15.77;;;7.10;;
7517;SDS011;3800;48.922;9.444;2023-10-09T09:03:49;16.70;;;8.43;;
7517;SDS011;3800;48.922;9.444;2023-10-09T09:06:18;14.50;;;6.47;;
7517;SDS011;3800;48.922;9.444;2023-10-09T09:08:47;13.70;;;7.07;;
7517;SDS011;3800;48.922;9.444;2023-10-09T09:11:16;14.10;;;6.90;;
7517;SDS011;3800;48.922;9.444;2023-10-09T09:13:45;14.00;;;7.07;;
7517;SDS011;3800;48.922;9.444;2023-10-09T09:16:16;17.07;;;6.87;;
7517;SDS011;3800;48.922;9.444;2023-10-09T09:19:03;15.33;;;6.77;;
7517;SDS011;3800;48.922;9.444;2023-10-09T09:21:33;17.97;;;7.07;;
7517;SDS011;3800;48.922;9.444;2023-10-09T09:24:05;11.07;;;6.90;;
7517;SDS011;3800;48.922;9.444;2023-10-09T09:26:36;15.57;;;6.93;;
7517;SDS011;3800;48.922;9.444;2023-10-09T09:29:05;15.77;;;6.87;;
7517;SDS011;3800;48.922;9.444;2023-10-09T09:31:33;13.10;;;5.70;;
7517;SDS011;3800;48.922;9.444;2023-10-09T09:34:05;14.47;;;5.90;;
7517;SDS011;3800;48.922;9.444;2023-10-09T09:39:21;13.37;;;6.00;;
7517;SDS011;3800;48.922;9.444;2023-10-09T09:41:50;13.23;;;6.40;;
7517;SDS011;3800;48.922;9.444;2023-10-09T09:44:19;12.93;;;6.20;;
7517;SDS011;3800;48.922;9.444;2023-10-09T09:46:47;11.47;;;6.07;;
7517;SDS011;3800;48.922;9.444;2023-10-09T09:49:16;13.13;;;5.80;;
7517;SDS011;3800;48.922;9.444;2023-10-09T09:51:45;13.20;;;6.07;;
7517;SDS011;3800;48.922;9.444;2023-10-09T09:54:14;15.67;;;5.73;;
7517;SDS011;3800;48.922;9.444;2023-10-09T09:56:44;14.40;;;5.67;;
7517;SDS011;3800;48.922;9.444;2023-10-09T09:59:14;13.13;;;5.73;;
7517;SDS011;3800;48.922;9.444;2023-10-09T10:01:43;14.37;;;6.20;;
7517;SDS011;3800;48.922;9.444;2023-10-09T10:04:12;16.27;;;5.83;;
7517;SDS011;3800;48.922;9.444;2023-10-09T10:06:40;15.20;;;5.73;;
7517;SDS011;3800;48.922;9.444;2023-10-09T10:09:08;19.40;;;6.17;;
7517;SDS011;3800;48.922;9.444;2023-10-09T10:11:42;18.00;;;5.60;;
7517;SDS011;3800;48.922;9.444;2023-10-09T10:14:13;14.67;;;5.77;;
7517;SDS011;3800;48.922;9.444;2023-10-09T10:22:27;14.70;;;4.80;;
7517;SDS011;3800;48.922;9.444;2023-10-09T10:24:55;20.57;;;5.80;;
7517;SDS011;3800;48.922;9.444;2023-10-09T10:27:25;15.93;;;5.73;;
7517;SDS011;3800;48.922;9.444;2023-10-09T10:32:54;16.67;;;5.37;;
7517;SDS011;3800;48.922;9.444;2023-10-09T10:35:22;16.93;;;4.97;;
7517;SDS011;3800;48.922;9.444;2023-10-09T10:40:49;17.50;;;5.10;;
7517;SDS011;3800;48.922;9.444;2023-10-09T10:43:23;14.93;;;4.57;;
7517;SDS011;3800;48.922;9.444;2023-10-09T10:46:01;16.87;;;4.37;;
7517;SDS011;3800;48.922;9.444;2023-10-09T10:48:34;16.40;;;5.07;;
7517;SDS011;3800;48.922;9.444;2023-10-09T10:51:04;17.60;;;4.40;;
7517;SDS011;3800;48.922;9.444;2023-10-09T10:53:32;15.07;;;4.27;;
7517;SDS011;3800;48.922;9.444;2023-10-09T10:56:02;15.93;;;4.10;;
7517;SDS011;3800;48.922;9.444;2023-10-09T10:58:37;13.47;;;3.93;;
7517;SDS011;3800;48.922;9.444;2023-10-09T11:01:05;13.70;;;4.53;;
7517;SDS011;3800;48.922;9.444;2023-10-09T11:03:39;12.57;;;4.17;;
7517;SDS011;3800;48.922;9.444;2023-10-09T11:06:13;11.97;;;4.17;;
7517;SDS011;3800;48.922;9.444;2023-10-09T11:08:44;13.17;;;3.83;;
7517;SDS011;3800;48.922;9.444;2023-10-09T11:11:17;17.30;;;4.40;;
7517;SDS011;3800;48.922;9.444;2023-10-09T11:13:46;14.77;;;4.67;;
7517;SDS011;3800;48.922;9.444;2023-10-09T11:16:19;14.27;;;4.23;;
7517;SDS011;3800;48.922;9.444;2023-10-09T11:19:08;13.50;;;3.60;;
7517;SDS011;3800;48.922;9.444;2023-10-09T11:21:55;18.97;;;4.80;;
7517;SDS011;3800;48.922;9.444;2023-10-09T11:24:44;14.63;;;4.30;;
7517;SDS011;3800;48.922;9.444;2023-10-09T11:27:13;17.73;;;4.27;;
7517;SDS011;3800;48.922;9.444;2023-10-09T11:29:51;14.00;;;4.10;;
7517;SDS011;3800;48.922;9.444;2023-10-09T11:32:20;16.07;;;4.47;;
7517;SDS011;3800;48.922;9.444;2023-10-09T11:34:50;13.80;;;4.50;;
7517;SDS011;3800;48.922;9.444;2023-10-09T11:37:22;12.40;;;3.93;;
7517;SDS011;3800;48.922;9.444;2023-10-09T11:40:02;11.47;;;4.17;;
7517;SDS011;3800;48.922;9.444;2023-10-09T11:42:31;12.40;;;4.30;;
7517;SDS011;3800;48.922;9.444;2023-10-09T11:45:05;13.90;;;4.77;;
7517;SDS011;3800;48.922;9.444;2023-10-09T11:47:39;15.37;;;4.90;;
7517;SDS011;3800;48.922;9.444;2023-10-09T11:50:12;15.57;;;4.60;;
7517;SDS011;3800;48.922;9.444;2023-10-09T11:55:21;13.60;;;4.43;;
7517;SDS011;3800;48.922;9.444;2023-10-09T11:57:51;11.13;;;4.20;;
7517;SDS011;3800;48.922;9.444;2023-10-09T12:00:19;16.37;;;4.23;;
7517;SDS011;3800;48.922;9.444;2023-10-09T12:02:51;20.33;;;4.60;;
7517;SDS011;3800;48.922;9.444;2023-10-09T12:05:20;13.30;;;3.83;;
7517;SDS011;3800;48.922;9.444;2023-10-09T12:07:48;13.70;;;4.43;;
7517;SDS011;3800;48.922;9.444;2023-10-09T12:10:18;12.87;;;3.87;;
7517;SDS011;3800;48.922;9.444;2023-10-09T12:12:46;13.40;;;4.60;;
7517;SDS011;3800;48.922;9.444;2023-10-09T12:15:16;17.93;;;4.90;;
7517;SDS011;3800;48.922;9.444;2023-10-09T12:17:44;15.93;;;4.77;;
7517;SDS011;3800;48.922;9.444;2023-10-09T12:20:13;15.93;;;4.40;;
7517;SDS011;3800;48.922;9.444;2023-10-09T12:22:42;15.87;;;4.63;;
7517;SDS011;3800;48.922;9.444;2023-10-09T12:25:10;17.07;;;4.40;;
7517;SDS011;3800;48.922;9.444;2023-10-09T12:27:39;17.20;;;4.60;;
7517;SDS011;3800;48.922;9.444;2023-10-09T12:30:08;15.60;;;4.43;;
7517;SDS011;3800;48.922;9.444;2023-10-09T12:32:38;18.20;;;5.10;;
7517;SDS011;3800;48.922;9.444;2023-10-09T12:35:06;16.60;;;4.83;;
7517;SDS011;3800;48.922;9.444;2023-10-09T12:37:35;14.40;;;4.27;;
7517;SDS011;3800;48.922;9.444;2023-10-09T12:40:03;16.53;;;4.60;;
7517;SDS011;3800;48.922;9.444;2023-10-09T12:42:32;18.37;;;4.93;;
7517;SDS011;3800;48.922;9.444;2023-10-09T12:45:00;14.93;;;5.43;;
7517;SDS011;3800;48.922;9.444;2023-10-09T12:47:29;15.97;;;5.20;;
7517;SDS011;3800;48.922;9.444;2023-10-09T12:49:57;19.03;;;6.67;;
7517;SDS011;3800;48.922;9.444;2023-10-09T12:52:26;17.53;;;6.23;;
7517;SDS011;3800;48.922;9.444;2023-10-09T12:57:29;16.83;;;4.93;;
7517;SDS011;3800;48.922;9.444;2023-10-09T12:59:58;14.03;;;4.67;;
7517;SDS011;3800;48.922;9.444;2023-10-09T13:02:26;12.43;;;5.07;;
7517;SDS011;3800;48.922;9.444;2023-10-09T13:04:56;15.87;;;5.07;;
7517;SDS011;3800;48.922;9.444;2023-10-09T13:07:24;18.33;;;4.67;;
7517;SDS011;3800;48.922;9.444;2023-10-09T13:09:52;15.90;;;5.23;;
7517;SDS011;3800;48.922;9.444;2023-10-09T13:12:26;17.23;;;4.90;;
7517;SDS011;3800;48.922;9.444;2023-10-09T13:14:54;16.57;;;5.33;;
7517;SDS011;3800;48.922;9.444;2023-10-09T13:17:22;15.37;;;4.63;;
7517;SDS011;3800;48.922;9.444;2023-10-09T13:19:50;16.40;;;4.67;;
7517;SDS011;3800;48.922;9.444;2023-10-09T13:22:20;13.37;;;4.83;;
7517;SDS011;3800;48.922;9.444;2023-10-09T13:24:49;11.47;;;4.60;;
7517;SDS011;3800;48.922;9.444;2023-10-09T13:27:17;14.90;;;4.90;;
7517;SDS011;3800;48.922;9.444;2023-10-09T13:29:45;12.73;;;4.60;;
7517;SDS011;3800;48.922;9.444;2023-10-09T13:32:14;13.27;;;4.63;;
7517;SDS011;3800;48.922;9.444;2023-10-09T13:34:43;12.00;;;4.70;;
7517;SDS011;3800;48.922;9.444;2023-10-09T13:37:12;17.53;;;5.10;;
7517;SDS011;3800;48.922;9.444;2023-10-09T13:39:41;11.90;;;4.37;;
7517;SDS011;3800;48.922;9.444;2023-10-09T13:42:14;13.93;;;4.90;;
7517;SDS011;3800;48.922;9.444;2023-10-09T13:44:42;19.77;;;5.07;;
7517;SDS011;3800;48.922;9.444;2023-10-09T13:47:11;16.93;;;5.00;;
7517;SDS011;3800;48.922;9.444;2023-10-09T13:49:40;10.87;;;4.90;;
7517;SDS011;3800;48.922;9.444;2023-10-09T13:52:09;13.50;;;4.60;;
7517;SDS011;3800;48.922;9.444;2023-10-09T13:54:37;12.53;;;4.47;;
7517;SDS011;3800;48.922;9.444;2023-10-09T13:57:05;12.97;;;4.97;;
7517;SDS011;3800;48.922;9.444;2023-10-09T14:02:15;9.50;;;5.10;;
7517;SDS011;3800;48.922;9.444;2023-10-09T14:04:46;12.97;;;5.03;;
7517;SDS011;3800;48.922;9.444;2023-10-09T14:07:14;17.40;;;5.50;;
7517;SDS011;3800;48.922;9.444;2023-10-09T14:09:44;10.33;;;4.93;;
7517;SDS011;3800;48.922;9.444;2023-10-09T14:12:12;8.53;;;4.67;;
7517;SDS011;3800;48.922;9.444;2023-10-09T14:14:41;13.23;;;5.07;;
7517;SDS011;3800;48.922;9.444;2023-10-09T14:17:15;10.93;;;4.80;;
7517;SDS011;3800;48.922;9.444;2023-10-09T14:19:55;11.53;;;4.90;;
7517;SDS011;3800;48.922;9.444;2023-10-09T14:22:23;11.57;;;4.97;;
7517;SDS011;3800;48.922;9.444;2023-10-09T14:24:52;14.27;;;5.10;;
7517;SDS011;3800;48.922;9.444;2023-10-09T14:27:25;10.30;;;5.23;;
7517;SDS011;3800;48.922;9.444;2023-10-09T14:29:52;13.90;;;5.73;;
7517;SDS011;3800;48.922;9.444;2023-10-09T14:32:20;13.53;;;5.10;;
7517;SDS011;3800;48.922;9.444;2023-10-09T14:34:48;12.80;;;5.30;;
7517;SDS011;3800;48.922;9.444;2023-10-09T14:37:17;13.97;;;5.23;;
7517;SDS011;3800;48.922;9.444;2023-10-09T14:39:46;13.93;;;5.27;;
7517;SDS011;3800;48.922;9.444;2023-10-09T14:42:16;11.40;;;5.70;;
7517;SDS011;3800;48.922;9.444;2023-10-09T14:44:45;11.10;;;4.90;;
7517;SDS011;3800;48.922;9.444;2023-10-09T14:47:14;12.70;;;5.10;;
7517;SDS011;3800;48.922;9.444;2023-10-09T14:49:46;12.40;;;4.97;;
7517;SDS011;3800;48.922;9.444;2023-10-09T14:52:15;10.97;;;4.77;;
7517;SDS011;3800;48.922;9.444;2023-10-09T14:54:46;13.23;;;5.43;;
7517;SDS011;3800;48.922;9.444;2023-10-09T14:57:14;15.07;;;5.77;;
7517;SDS011;3800;48.922;9.444;2023-10-09T14:59:43;10.90;;;5.27;;
7517;SDS011;3800;48.922;9.444;2023-10-09T15:02:11;10.13;;;5.03;;
7517;SDS011;3800;48.922;9.444;2023-10-09T15:04:40;13.33;;;5.33;;
7517;SDS011;3800;48.922;9.444;2023-10-09T15:07:08;10.17;;;5.03;;
7517;SDS011;3800;48.922;9.444;2023-10-09T15:09:36;18.00;;;5.37;;
7517;SDS011;3800;48.922;9.444;2023-10-09T15:12:05;14.83;;;5.63;;
7517;SDS011;3800;48.922;9.444;2023-10-09T15:14:34;10.80;;;4.77;;
7517;SDS011;3800;48.922;9.444;2023-10-09T15:17:02;11.23;;;4.97;;
7517;SDS011;3800;48.922;9.444;2023-10-09T15:19:31;10.80;;;4.53;;
7517;SDS011;3800;48.922;9.444;2023-10-09T15:22:00;11.87;;;5.23;;
7517;SDS011;3800;48.922;9.444;2023-10-09T15:24:29;9.13;;;4.67;;
7517;SDS011;3800;48.922;9.444;2023-10-09T15:26:58;9.10;;;5.13;;
7517;SDS011;3800;48.922;9.444;2023-10-09T15:29:27;10.93;;;5.60;;
7517;SDS011;3800;48.922;9.444;2023-10-09T15:31:56;10.53;;;5.53;;
7517;SDS011;3800;48.922;9.444;2023-10-09T15:34:24;13.93;;;5.57;;
7517;SDS011;3800;48.922;9.444;2023-10-09T15:36:53;16.73;;;6.23;;
7517;SDS011;3800;48.922;9.444;2023-10-09T15:39:22;11.83;;;5.40;;
7517;SDS011;3800;48.922;9.444;2023-10-09T15:41:51;12.77;;;5.67;;
7517;SDS011;3800;48.922;9.444;2023-10-09T15:44:20;18.13;;;6.33;;
7517;SDS011;3800;48.922;9.444;2023-10-09T15:46:50;14.47;;;6.30;;
7517;SDS011;3800;48.922;9.444;2023-10-09T15:49:18;14.87;;;6.30;;
7517;SDS011;3800;48.922;9.444;2023-10-09T15:51:46;14.87;;;5.67;;